createdAt,value
2022-09-15T00:01:38.933Z,31.25
2022-09-15T00:04:06.338Z,31.45
2022-09-15T00:06:34.268Z,31.41
2022-09-15T00:09:02.185Z,31.31
2022-09-15T00:11:31.153Z,31.13
2022-09-15T00:13:59.421Z,31.22
2022-09-15T00:16:28.207Z,31.35
2022-09-15T00:18:55.642Z,31.34
2022-09-15T00:21:25.538Z,31.58
2022-09-15T00:23:53.172Z,31.38
2022-09-15T00:26:21.814Z,31.36
2022-09-15T00:28:49.477Z,31.28
2022-09-15T00:31:18.279Z,31.53
2022-09-15T00:33:49.475Z,31.37
2022-09-15T00:36:17.200Z,31.48
2022-09-15T00:38:44.798Z,31.19
2022-09-15T00:41:12.683Z,31.24
2022-09-15T00:43:49.177Z,31.35
2022-09-15T00:46:19.095Z,31.39
2022-09-15T00:48:52.965Z,31.11
2022-09-15T00:51:23.104Z,31.35
2022-09-15T00:53:50.756Z,31.62
2022-09-15T00:56:19.788Z,31.64
2022-09-15T00:58:50.730Z,31.71
2022-09-15T01:01:18.195Z,31.40
2022-09-15T01:03:45.803Z,31.26
2022-09-15T01:06:20.318Z,31.40
2022-09-15T01:08:57.044Z,31.33
2022-09-15T01:11:24.403Z,31.47
2022-09-15T01:13:51.721Z,31.54
2022-09-15T01:19:09.209Z,31.69
2022-09-15T01:21:48.118Z,31.52
2022-09-15T01:24:21.223Z,31.55
2022-09-15T01:27:30.547Z,31.36
2022-09-15T01:29:59.835Z,31.32
2022-09-15T01:32:45.445Z,31.31
2022-09-15T01:35:33.751Z,31.54
2022-09-15T01:38:03.928Z,31.52
2022-09-15T01:40:35.367Z,31.60
2022-09-15T01:43:03.909Z,31.65
2022-09-15T01:45:32.987Z,31.39
2022-09-15T01:48:01.992Z,31.48
2022-09-15T01:50:33.346Z,31.52
2022-09-15T01:53:02.529Z,31.54
2022-09-15T01:55:39.981Z,31.41
2022-09-15T01:58:08.173Z,31.67
2022-09-15T02:00:37.691Z,31.36
2022-09-15T02:03:09.096Z,31.50
2022-09-15T02:05:41.232Z,31.66
2022-09-15T02:08:25.582Z,31.76
2022-09-15T02:11:16.205Z,31.86
2022-09-15T02:14:03.069Z,31.56
2022-09-15T02:16:33.700Z,31.44
2022-09-15T02:19:01.028Z,31.46
2022-09-15T02:21:33.727Z,31.37
2022-09-15T02:24:05.949Z,31.45
2022-09-15T02:26:35.881Z,31.55
2022-09-15T02:29:05.185Z,31.57
2022-09-15T02:31:35.244Z,31.52
2022-09-15T02:34:06.841Z,31.60
2022-09-15T02:36:34.370Z,31.62
2022-09-15T02:39:04.418Z,31.52
2022-09-15T02:41:32.877Z,31.55
2022-09-15T02:44:00.075Z,31.57
2022-09-15T02:46:28.344Z,31.53
2022-09-15T02:48:57.073Z,31.56
2022-09-15T02:51:24.300Z,31.39
2022-09-15T02:53:51.653Z,31.55
2022-09-15T02:56:18.885Z,31.44
2022-09-15T02:58:46.050Z,31.53
2022-09-15T03:01:17.430Z,31.69
2022-09-15T03:03:45.122Z,31.64
2022-09-15T03:06:21.128Z,31.47
2022-09-15T03:08:50.916Z,31.51
2022-09-15T03:11:19.485Z,31.60
2022-09-15T03:13:46.989Z,31.68
2022-09-15T03:16:15.377Z,31.75
2022-09-15T03:18:43.013Z,31.68
2022-09-15T03:21:12.123Z,31.66
2022-09-15T03:23:39.785Z,31.69
2022-09-15T03:26:08.937Z,31.78
2022-09-15T03:28:36.999Z,31.68
2022-09-15T03:31:04.317Z,31.75
2022-09-15T03:33:31.603Z,31.74
2022-09-15T03:35:58.983Z,31.83
2022-09-15T03:38:26.209Z,31.85
2022-09-15T03:41:01.640Z,31.87
2022-09-15T03:43:29.877Z,31.77
2022-09-15T03:45:57.825Z,31.88
2022-09-15T03:48:26.030Z,31.48
2022-09-15T03:50:53.233Z,31.60
2022-09-15T03:53:20.753Z,31.71
2022-09-15T03:55:49.037Z,31.79
2022-09-15T03:58:16.656Z,31.67
2022-09-15T04:00:44.482Z,31.75
2022-09-15T04:03:12.159Z,31.86
2022-09-15T04:05:39.946Z,31.57
2022-09-15T04:08:07.421Z,31.75
2022-09-15T04:10:38.156Z,31.76
2022-09-15T04:13:05.330Z,31.68
2022-09-15T04:15:32.501Z,31.75
2022-09-15T04:17:59.824Z,31.70
2022-09-15T04:20:27.305Z,31.71
2022-09-15T04:22:54.491Z,31.61
2022-09-15T04:25:21.720Z,31.68
2022-09-15T04:27:49.073Z,31.46
2022-09-15T04:30:16.251Z,31.43
2022-09-15T04:32:43.620Z,31.66
2022-09-15T04:35:10.768Z,31.36
2022-09-15T04:37:38.342Z,31.73
2022-09-15T04:40:05.838Z,32.07
2022-09-15T04:42:33.065Z,31.96
2022-09-15T04:45:00.466Z,32.06
2022-09-15T04:47:28.004Z,31.58
2022-09-15T04:49:55.164Z,31.15
2022-09-15T04:52:22.393Z,31.36
2022-09-15T04:54:49.646Z,31.54
2022-09-15T04:57:17.089Z,31.28
2022-09-15T04:59:44.305Z,31.52
2022-09-15T05:02:11.561Z,31.71
2022-09-15T05:04:38.784Z,31.79
2022-09-15T05:07:05.974Z,31.91
2022-09-15T05:09:33.354Z,31.76
2022-09-15T05:12:00.719Z,31.98
2022-09-15T05:14:27.903Z,32.10
2022-09-15T05:16:55.265Z,31.82
2022-09-15T05:19:22.750Z,31.70
2022-09-15T05:21:49.917Z,31.73
2022-09-15T05:24:17.552Z,31.75
2022-09-15T05:26:44.839Z,31.42
2022-09-15T05:29:12.158Z,31.55
2022-09-15T05:31:39.470Z,31.52
2022-09-15T05:34:07.348Z,31.51
2022-09-15T05:36:34.572Z,31.54
2022-09-15T05:39:01.964Z,31.34
2022-09-15T05:41:29.507Z,31.37
2022-09-15T05:43:57.604Z,31.71
2022-09-15T05:46:29.378Z,31.64
2022-09-15T05:48:58.062Z,31.51
2022-09-15T05:51:25.333Z,31.48
2022-09-15T05:53:52.774Z,31.39
2022-09-15T05:56:20.240Z,31.46
2022-09-15T05:58:48.083Z,31.70
2022-09-15T06:01:23.006Z,31.53
2022-09-15T06:03:50.445Z,31.84
2022-09-15T06:06:17.870Z,31.84
2022-09-15T06:08:48.247Z,31.71
2022-09-15T06:11:17.242Z,31.51
2022-09-15T06:13:44.756Z,31.63
2022-09-15T06:16:22.462Z,31.50
2022-09-15T06:18:51.045Z,31.61
2022-09-15T06:21:18.405Z,31.51
2022-09-15T06:23:50.536Z,31.42
2022-09-15T06:26:19.015Z,31.53
2022-09-15T06:28:50.381Z,31.71
2022-09-15T06:31:18.408Z,31.32
2022-09-15T06:33:47.316Z,31.50
2022-09-15T06:36:15.623Z,31.53
2022-09-15T06:38:43.221Z,31.55
2022-09-15T06:41:11.285Z,31.61
2022-09-15T06:43:39.052Z,31.75
2022-09-15T06:46:10.435Z,31.37
2022-09-15T06:48:38.425Z,31.56
2022-09-15T06:51:06.594Z,31.58
2022-09-15T06:53:35.064Z,31.29
2022-09-15T06:56:06.548Z,31.47
2022-09-15T06:58:37.550Z,31.62
2022-09-15T07:01:06.078Z,31.45
2022-09-15T07:03:33.403Z,31.62
2022-09-15T07:06:00.688Z,31.56
2022-09-15T07:08:28.211Z,31.57
2022-09-15T07:10:55.776Z,31.58
2022-09-15T07:13:23.404Z,31.38
2022-09-15T07:15:54.756Z,31.62
2022-09-15T07:18:22.928Z,31.77
2022-09-15T07:20:50.527Z,31.97
2022-09-15T07:23:18.052Z,31.55
2022-09-15T07:25:45.316Z,31.47
2022-09-15T07:28:13.028Z,31.52
2022-09-15T07:30:41.059Z,31.35
2022-09-15T07:33:09.218Z,31.26
2022-09-15T07:35:41.344Z,31.56
2022-09-15T07:38:08.763Z,31.47
2022-09-15T07:40:36.185Z,31.57
2022-09-15T07:43:03.543Z,31.58
2022-09-15T07:45:31.276Z,31.56
2022-09-15T07:47:58.616Z,31.63
2022-09-15T07:50:26.031Z,31.93
2022-09-15T07:52:56.758Z,31.89
2022-09-15T07:55:24.431Z,32.02
2022-09-15T07:57:58.645Z,32.06
2022-09-15T08:00:26.643Z,31.88
2022-09-15T08:02:54.108Z,31.87
2022-09-15T08:05:21.812Z,31.76
2022-09-15T08:07:49.070Z,31.71
2022-09-15T08:10:16.496Z,31.76
2022-09-15T08:12:43.831Z,31.71
2022-09-15T08:15:11.029Z,31.72
2022-09-15T08:17:38.256Z,31.66
2022-09-15T08:20:05.824Z,31.83
2022-09-15T08:22:33.020Z,31.82
2022-09-15T08:25:00.231Z,31.77
2022-09-15T08:27:27.570Z,31.63
2022-09-15T08:29:54.974Z,31.65
2022-09-15T08:32:22.391Z,31.66
2022-09-15T08:34:49.975Z,31.32
2022-09-15T08:37:17.456Z,31.67
2022-09-15T08:39:46.179Z,31.54
2022-09-15T08:42:15.689Z,31.69
2022-09-15T08:44:56.009Z,31.56
2022-09-15T08:47:25.482Z,31.70
2022-09-15T08:50:20.610Z,31.54
2022-09-15T08:52:53.144Z,31.46
2022-09-15T08:55:39.189Z,31.34
2022-09-15T08:58:06.549Z,31.57
2022-09-15T09:00:33.813Z,31.31
2022-09-15T09:03:16.191Z,31.29
2022-09-15T09:05:47.596Z,30.97
2022-09-15T09:08:17.637Z,31.32
2022-09-15T09:11:00.170Z,31.43
2022-09-15T09:13:45.862Z,31.41
2022-09-15T09:16:15.939Z,31.14
2022-09-15T09:18:46.990Z,30.97
2022-09-15T09:21:14.342Z,31.26
2022-09-15T09:23:50.831Z,31.36
2022-09-15T09:26:18.428Z,31.38
2022-09-15T09:29:14.948Z,31.29
2022-09-15T09:31:43.188Z,31.42
2022-09-15T09:34:16.805Z,31.66
2022-09-15T09:36:44.145Z,31.52
2022-09-15T09:39:15.250Z,31.74
2022-09-15T09:41:42.898Z,31.87
2022-09-15T09:44:14.254Z,31.67
2022-09-15T09:46:41.913Z,31.76
2022-09-15T09:49:54.662Z,31.70
2022-09-15T09:52:49.879Z,31.69
2022-09-15T09:55:27.349Z,31.90
2022-09-15T09:58:13.921Z,31.59
2022-09-15T10:00:47.369Z,31.64
2022-09-15T10:03:14.707Z,31.58
2022-09-15T10:05:42.543Z,31.69
2022-09-15T10:08:17.080Z,31.66
2022-09-15T10:10:50.065Z,31.70
2022-09-15T10:13:17.409Z,31.65
2022-09-15T10:15:50.578Z,31.73
2022-09-15T10:18:26.766Z,31.89
2022-09-15T10:20:54.348Z,31.68
2022-09-15T10:23:21.807Z,31.65
2022-09-15T10:25:59.139Z,31.88
2022-09-15T10:28:27.729Z,31.73
2022-09-15T10:30:57.734Z,31.75
2022-09-15T10:33:26.790Z,31.67
2022-09-15T10:35:56.055Z,31.36
2022-09-15T10:38:30.237Z,31.55
2022-09-15T10:41:03.590Z,31.47
2022-09-15T10:43:49.741Z,31.46
2022-09-15T10:46:24.045Z,31.33
2022-09-15T10:48:51.297Z,31.61
2022-09-15T10:51:36.983Z,31.40
2022-09-15T10:54:11.375Z,31.72
2022-09-15T10:56:41.807Z,31.74
2022-09-15T10:59:27.982Z,31.91
2022-09-15T11:01:55.379Z,31.99
2022-09-15T11:04:25.397Z,31.75
2022-09-15T11:07:03.937Z,31.90
2022-09-15T11:09:34.953Z,31.85
2022-09-15T11:12:19.357Z,31.86
2022-09-15T11:14:48.432Z,31.92
2022-09-15T11:17:31.125Z,31.87
2022-09-15T11:20:13.723Z,31.70
2022-09-15T11:22:59.676Z,31.77
2022-09-15T11:25:29.860Z,31.81
2022-09-15T11:28:14.334Z,31.77
2022-09-15T11:30:47.762Z,31.81
2022-09-15T11:33:53.716Z,31.69
2022-09-15T11:36:25.113Z,31.91
2022-09-15T11:38:59.752Z,31.82
2022-09-15T11:41:34.862Z,31.91
2022-09-15T11:44:16.035Z,31.67
2022-09-15T11:47:02.805Z,31.87
2022-09-15T11:49:42.445Z,31.81
2022-09-15T11:52:28.243Z,31.85
2022-09-15T11:54:55.543Z,32.06
2022-09-15T11:57:29.044Z,31.82
2022-09-15T12:00:17.055Z,31.95
2022-09-15T12:02:49.257Z,31.66
2022-09-15T12:05:23.979Z,31.69
2022-09-15T12:08:18.949Z,31.90
2022-09-15T12:10:48.960Z,31.84
2022-09-15T12:13:20.301Z,32.10
2022-09-15T12:15:48.703Z,31.95
2022-09-15T12:18:38.156Z,31.85
2022-09-15T12:21:17.318Z,32.00
2022-09-15T12:23:56.435Z,31.95
2022-09-15T12:26:25.299Z,31.89
2022-09-15T12:29:02.742Z,31.89
2022-09-15T12:31:37.746Z,31.88
2022-09-15T12:34:06.463Z,31.58
2022-09-15T12:36:38.345Z,31.66
2022-09-15T12:39:19.578Z,31.55
2022-09-15T12:41:51.111Z,31.64
2022-09-15T12:44:24.033Z,31.63
2022-09-15T12:46:56.261Z,31.79
2022-09-15T12:49:28.400Z,31.75
2022-09-15T12:51:56.650Z,31.56
2022-09-15T12:54:26.876Z,31.80
2022-09-15T12:56:54.780Z,31.69
2022-09-15T12:59:26.189Z,31.72
2022-09-15T13:01:54.592Z,31.64
2022-09-15T13:04:44.699Z,31.68
2022-09-15T13:07:15.023Z,31.43
2022-09-15T13:09:46.041Z,31.56
2022-09-15T13:12:17.240Z,31.72
2022-09-15T13:14:48.421Z,31.84
2022-09-15T13:17:16.635Z,31.87
2022-09-15T13:19:49.675Z,31.72
2022-09-15T13:22:49.138Z,31.81
2022-09-15T13:25:44.049Z,31.87
2022-09-15T13:28:23.907Z,31.91
2022-09-15T13:40:07.109Z,31.73
2022-09-15T13:42:52.839Z,31.94
2022-09-15T13:45:22.078Z,31.88
2022-09-15T13:47:58.897Z,31.78
2022-09-15T13:50:31.587Z,31.61
2022-09-15T13:53:20.601Z,31.68
2022-09-15T13:55:48.573Z,31.41
2022-09-15T14:01:06.908Z,31.69
2022-09-15T14:03:40.116Z,31.82
2022-09-15T14:06:12.515Z,31.72
2022-09-15T14:08:41.693Z,31.71
2022-09-15T14:11:11.908Z,31.50
2022-09-15T14:13:42.463Z,31.62
2022-09-15T14:16:25.123Z,31.42
2022-09-15T14:18:54.079Z,31.70
2022-09-15T14:21:25.929Z,31.74
2022-09-15T14:23:55.117Z,31.85
2022-09-15T14:26:23.555Z,31.61
2022-09-15T14:28:58.645Z,31.22
2022-09-15T14:31:34.656Z,31.26
2022-09-15T14:34:03.459Z,31.37
2022-09-15T14:36:32.649Z,31.33
2022-09-15T14:39:20.131Z,31.37
2022-09-15T14:41:47.873Z,31.68
2022-09-15T14:47:28.115Z,31.74
2022-09-15T14:50:08.148Z,31.69
2022-09-15T14:52:40.580Z,31.54
2022-09-15T14:55:12.648Z,31.50
2022-09-15T14:57:41.651Z,31.26
2022-09-15T15:00:13.410Z,31.40
2022-09-15T15:02:52.588Z,31.54
2022-09-15T15:05:22.741Z,31.26
2022-09-15T15:07:50.725Z,31.43
2022-09-15T15:10:21.248Z,31.30
2022-09-15T15:13:09.053Z,31.37
2022-09-15T15:15:37.566Z,31.31
2022-09-15T15:18:05.727Z,31.05
2022-09-15T15:20:33.053Z,31.29
2022-09-15T15:23:23.556Z,31.21
2022-09-15T15:25:51.372Z,31.25
2022-09-15T15:28:35.818Z,31.13
2022-09-15T15:31:07.770Z,31.24
2022-09-15T15:33:35.105Z,31.15
2022-09-15T15:36:07.180Z,30.89
2022-09-15T15:38:44.914Z,31.26
2022-09-15T15:41:19.150Z,31.35
2022-09-15T15:44:00.372Z,31.47
2022-09-15T15:46:46.250Z,31.50
2022-09-15T15:49:13.954Z,31.61
2022-09-15T15:51:41.656Z,31.30
2022-09-15T15:54:09.117Z,30.81
2022-09-15T15:56:37.985Z,31.10
2022-09-15T15:59:06.161Z,31.26
2022-09-15T16:01:33.664Z,31.40
2022-09-15T16:04:00.960Z,31.41
2022-09-15T16:06:28.185Z,31.25
2022-09-15T16:08:58.234Z,31.58
2022-09-15T16:11:25.484Z,31.35
2022-09-15T16:13:53.222Z,31.48
2022-09-15T16:16:21.985Z,31.38
2022-09-15T16:18:50.139Z,31.31
2022-09-15T16:21:17.403Z,31.40
2022-09-15T16:23:45.003Z,31.42
2022-09-15T16:26:17.671Z,31.16
2022-09-15T16:28:45.014Z,31.29
2022-09-15T16:31:13.283Z,31.39
2022-09-15T16:33:41.780Z,31.47
2022-09-15T16:36:12.973Z,31.38
2022-09-15T16:38:41.230Z,31.27
2022-09-15T16:41:15.824Z,31.53
2022-09-15T16:43:44.245Z,31.87
2022-09-15T16:46:12.096Z,31.76
2022-09-15T16:48:40.156Z,31.39
2022-09-15T16:53:58.416Z,31.68
2022-09-15T16:56:25.751Z,31.59
2022-09-15T16:58:58.807Z,31.63
2022-09-15T17:01:27.254Z,31.74
2022-09-15T17:03:54.512Z,31.46
2022-09-15T17:06:22.356Z,31.62
2022-09-15T17:08:49.979Z,31.62
2022-09-15T17:11:18.355Z,31.64
2022-09-15T17:13:45.620Z,31.29
2022-09-15T17:16:14.960Z,31.68
2022-09-15T17:18:42.333Z,31.74
2022-09-15T17:21:10.570Z,31.63
2022-09-15T17:23:39.403Z,31.39
2022-09-15T17:26:18.150Z,31.64
2022-09-15T17:28:45.812Z,31.38
2022-09-15T17:31:20.446Z,31.42
2022-09-15T17:33:48.276Z,31.38
2022-09-15T17:36:15.927Z,31.69
2022-09-15T17:38:44.961Z,31.61
2022-09-15T17:41:15.985Z,31.56
2022-09-15T17:43:43.515Z,31.31
2022-09-15T17:46:11.044Z,31.15
2022-09-15T17:48:39.181Z,31.45
2022-09-15T17:51:07.264Z,31.52
2022-09-15T17:53:34.474Z,31.70
2022-09-15T17:56:02.809Z,31.67
2022-09-15T17:58:31.481Z,31.63
2022-09-15T18:00:59.413Z,31.86
2022-09-15T18:03:33.362Z,31.84
2022-09-15T18:06:02.878Z,31.91
2022-09-15T18:08:30.186Z,31.61
2022-09-15T18:10:57.612Z,31.58
2022-09-15T18:13:29.948Z,31.71
2022-09-15T18:15:57.978Z,31.76
2022-09-15T18:18:26.549Z,31.70
2022-09-15T18:20:55.146Z,31.71
2022-09-15T18:23:24.499Z,31.87
2022-09-15T18:25:52.055Z,31.73
2022-09-15T18:28:19.516Z,31.66
2022-09-15T18:30:48.099Z,31.57
2022-09-15T18:33:20.138Z,31.91
2022-09-15T18:35:51.872Z,31.84
2022-09-15T18:38:19.229Z,31.59
2022-09-15T18:40:47.644Z,31.71
2022-09-15T18:43:15.365Z,31.81
2022-09-15T18:45:42.860Z,31.88
2022-09-15T18:48:12.708Z,32.05
2022-09-15T18:50:41.648Z,31.53
2022-09-15T18:53:09.343Z,31.67
2022-09-15T18:55:36.697Z,31.82
2022-09-15T18:58:03.921Z,31.63
2022-09-15T19:00:31.829Z,31.68
2022-09-15T19:03:00.392Z,31.69
2022-09-15T19:05:28.577Z,31.84
2022-09-15T19:07:56.167Z,31.70
2022-09-15T19:10:24.483Z,31.63
2022-09-15T19:12:52.025Z,31.39
2022-09-15T19:15:23.566Z,31.60
2022-09-15T19:17:51.455Z,31.88
2022-09-15T19:20:18.656Z,31.75
2022-09-15T19:22:46.457Z,31.68
2022-09-15T19:25:15.728Z,31.66
2022-09-15T19:27:43.193Z,31.92
2022-09-15T19:30:10.758Z,31.82
2022-09-15T19:32:38.643Z,31.81
2022-09-15T19:35:06.563Z,31.89
2022-09-15T19:37:36.223Z,31.75
2022-09-15T19:40:07.001Z,31.90
2022-09-15T19:42:34.434Z,31.89
2022-09-15T19:45:01.627Z,31.97
2022-09-15T19:47:29.198Z,31.72
2022-09-15T19:49:56.407Z,31.76
2022-09-15T19:52:23.622Z,31.83
2022-09-15T19:54:50.827Z,31.84
2022-09-15T19:57:18.171Z,32.18
2022-09-15T19:59:45.397Z,31.69
2022-09-15T20:02:12.729Z,31.70
2022-09-15T20:07:24.921Z,31.76
2022-09-15T20:09:53.465Z,31.70
2022-09-15T20:14:53.292Z,31.81
2022-09-15T20:17:20.604Z,31.81
2022-09-15T20:19:47.859Z,31.84
2022-09-15T20:22:15.082Z,31.68
2022-09-15T20:24:42.490Z,31.67
2022-09-15T20:27:09.689Z,31.86
2022-09-15T20:29:36.908Z,31.90
2022-09-15T20:32:04.182Z,31.66
2022-09-15T20:34:31.630Z,31.83
2022-09-15T20:36:58.835Z,31.68
2022-09-15T20:39:26.065Z,31.51
2022-09-15T20:41:53.285Z,31.58
2022-09-15T20:44:20.563Z,31.61
2022-09-15T20:46:47.801Z,31.58
2022-09-15T20:49:15.845Z,31.54
2022-09-15T20:51:43.046Z,31.57
2022-09-15T20:54:11.024Z,31.56
2022-09-15T20:56:38.487Z,31.61
2022-09-15T20:59:06.549Z,31.55
2022-09-15T21:01:36.360Z,31.61
2022-09-15T21:04:04.104Z,31.52
2022-09-15T21:06:31.806Z,31.58
2022-09-15T21:08:59.018Z,31.60
2022-09-15T21:11:27.149Z,31.67
2022-09-15T21:13:54.782Z,31.58
2022-09-15T21:16:23.347Z,31.68
2022-09-15T21:18:51.066Z,31.61
2022-09-15T21:21:18.323Z,31.67
2022-09-15T21:23:46.989Z,31.43
2022-09-15T21:26:21.815Z,31.51
2022-09-15T21:28:49.496Z,31.67
2022-09-15T21:31:18.260Z,31.42
2022-09-15T21:33:46.074Z,31.68
2022-09-15T21:36:14.832Z,31.73
2022-09-15T21:38:44.103Z,31.50
2022-09-15T21:41:15.461Z,31.40
2022-09-15T21:43:44.551Z,31.44
2022-09-15T21:46:13.161Z,31.50
2022-09-15T21:48:40.698Z,31.41
2022-09-15T21:51:09.074Z,31.40
2022-09-15T21:53:37.098Z,31.82
2022-09-15T21:56:06.122Z,31.46
2022-09-15T21:58:39.158Z,31.86
2022-09-15T22:01:14.523Z,31.41
2022-09-15T22:03:42.457Z,31.68
2022-09-15T22:06:10.686Z,31.63
2022-09-15T22:08:39.124Z,31.67
2022-09-15T22:11:07.207Z,31.62
2022-09-15T22:13:36.449Z,31.64
2022-09-15T22:16:08.533Z,31.53
2022-09-15T22:18:37.068Z,31.60
2022-09-15T22:21:12.254Z,31.52
2022-09-15T22:23:40.086Z,31.56
2022-09-15T22:26:08.775Z,31.13
2022-09-15T22:28:36.337Z,31.54
2022-09-15T22:31:05.303Z,31.48
2022-09-15T22:33:32.925Z,31.26
2022-09-15T22:36:00.246Z,31.41
2022-09-15T22:38:28.890Z,31.61
2022-09-15T22:40:56.617Z,31.60
2022-09-15T22:43:23.878Z,31.60
2022-09-15T22:45:51.189Z,31.64
2022-09-15T22:48:18.518Z,31.45
2022-09-15T22:50:46.269Z,31.35
2022-09-15T22:53:13.722Z,31.55
2022-09-15T22:55:41.175Z,31.55
2022-09-15T22:58:08.592Z,31.48
2022-09-15T23:00:37.701Z,31.53
2022-09-15T23:03:05.374Z,31.69
2022-09-15T23:05:32.980Z,31.54
2022-09-15T23:08:00.280Z,31.57
2022-09-15T23:10:28.246Z,31.57
2022-09-15T23:12:56.036Z,31.65
2022-09-15T23:15:23.196Z,31.75
2022-09-15T23:17:50.763Z,31.62
2022-09-15T23:20:18.097Z,31.57
2022-09-15T23:22:45.384Z,31.68
2022-09-15T23:25:13.007Z,31.73
2022-09-15T23:27:40.428Z,31.71
2022-09-15T23:30:07.904Z,31.53
2022-09-15T23:32:35.248Z,31.57
2022-09-15T23:35:02.640Z,31.63
2022-09-15T23:37:29.889Z,31.65
2022-09-15T23:39:57.325Z,31.70
2022-09-15T23:42:24.691Z,31.51
2022-09-15T23:44:51.869Z,31.40
2022-09-15T23:47:19.088Z,31.40
2022-09-15T23:49:46.285Z,31.42
2022-09-15T23:52:13.579Z,31.63
2022-09-15T23:54:40.903Z,31.77
2022-09-15T23:57:11.038Z,31.56
2022-09-15T23:59:38.310Z,31.67
